AJM44 KPHL-MKJS
Flight info
| Callsign | AJM44 |
|---|---|
| Flight time | N/A |
| Altitude | 34000 |
| Route | OOD DCT TEBEE DCT HAYDO DCT TRPOD Q409 CRPLR DCT EARZZ DCT SKARP/N0470F360 Y327 IDOLS DCT FLRDA AR18 ETECK M202 ADOOR BR65V ZFP AR24 URSUS DCT NIBEO UL341 ENARI LENAR7 |
| Aircraft | B738/M-SDE2E3FGHIRWXY/LB1 |
Departure
| Time | 2026-05-04 00:03 |
|---|---|
| Airport | Philadelphia International Airport (KPHL) |
Arrival
| Time | N/A |
|---|---|
| Airport | Sangster International Airport (MKJS) |
| Time | Latitude | Longitude | Altitude | Speed | Heading |
|---|---|---|---|---|---|
| 2026-05-03 23:57 | 39.87336 | -75.24439 | 46 ft | 0 kts | 32° |
| 2026-05-03 23:57 | 39.87335 | -75.24440 | 46 ft | 1 kts | 32° |
| 2026-05-03 23:58 | 39.87323 | -75.24449 | 46 ft | 2 kts | 28° |
| 2026-05-03 23:58 | 39.87308 | -75.24459 | 46 ft | 2 kts | 25° |
| 2026-05-03 23:58 | 39.87294 | -75.24467 | 46 ft | 2 kts | 26° |
| 2026-05-03 23:58 | 39.87280 | -75.24477 | 46 ft | 2 kts | 34° |
| 2026-05-03 23:59 | 39.87271 | -75.24490 | 46 ft | 2 kts | 61° |
| 2026-05-03 23:59 | 39.87265 | -75.24509 | 46 ft | 2 kts | 74° |
| 2026-05-03 23:59 | 39.87261 | -75.24527 | 46 ft | 0 kts | 75° |
| 2026-05-04 00:00 | 39.87261 | -75.24526 | 46 ft | 0 kts | 75° |
| 2026-05-04 00:01 | 39.87268 | -75.24494 | 46 ft | 9 kts | 75° |
| 2026-05-04 00:01 | 39.87299 | -75.24338 | 46 ft | 16 kts | 75° |
| 2026-05-04 00:01 | 39.87307 | -75.24226 | 46 ft | 14 kts | 122° |
| 2026-05-04 00:02 | 39.87224 | -75.24143 | 46 ft | 18 kts | 155° |
| 2026-05-04 00:02 | 39.87094 | -75.24081 | 46 ft | 21 kts | 164° |
| 2026-05-04 00:02 | 39.86954 | -75.24032 | 46 ft | 20 kts | 164° |
| 2026-05-04 00:02 | 39.86855 | -75.23930 | 46 ft | 18 kts | 164° |
| 2026-05-04 00:03 | 39.86786 | -75.23987 | 46 ft | 14 kts | 255° |
| 2026-05-04 00:03 | 39.86699 | -75.24427 | 46 ft | 96 kts | 255° |
| 2026-05-04 00:03 | 39.86462 | -75.25603 | 293 ft | 155 kts | 256° |
| 2026-05-04 00:03 | 39.86178 | -75.27008 | 1353 ft | 163 kts | 257° |
| 2026-05-04 00:04 | 39.85734 | -75.28359 | 2220 ft | 169 kts | 236° |
| 2026-05-04 00:04 | 39.84708 | -75.29142 | 2724 ft | 186 kts | 195° |
| 2026-05-04 00:04 | 39.83366 | -75.29199 | 3334 ft | 198 kts | 178° |
| 2026-05-04 00:04 | 39.81942 | -75.29100 | 4012 ft | 211 kts | 177° |
| 2026-05-04 00:05 | 39.80418 | -75.29031 | 4793 ft | 226 kts | 179° |
| 2026-05-04 00:05 | 39.78793 | -75.29018 | 5560 ft | 241 kts | 180° |
| 2026-05-04 00:05 | 39.77072 | -75.29064 | 6312 ft | 257 kts | 182° |
| 2026-05-04 00:05 | 39.75228 | -75.29164 | 7093 ft | 271 kts | 183° |
| 2026-05-04 00:06 | 39.73322 | -75.29308 | 8061 ft | 275 kts | 184° |
| 2026-05-04 00:06 | 39.71401 | -75.29473 | 9057 ft | 278 kts | 184° |
| 2026-05-04 00:06 | 39.69452 | -75.29649 | 10010 ft | 281 kts | 184° |
| 2026-05-04 00:06 | 39.67492 | -75.29849 | 10736 ft | 293 kts | 185° |
| 2026-05-04 00:07 | 39.65409 | -75.30087 | 11358 ft | 307 kts | 185° |
| 2026-05-04 00:07 | 39.63234 | -75.30380 | 11959 ft | 320 kts | 186° |
| 2026-05-04 00:07 | 39.60972 | -75.30730 | 12556 ft | 334 kts | 187° |
| 2026-05-04 00:07 | 39.58613 | -75.31133 | 13031 ft | 350 kts | 187° |
| 2026-05-04 00:08 | 39.56174 | -75.31564 | 13627 ft | 362 kts | 188° |
| 2026-05-04 00:08 | 39.53665 | -75.32015 | 14511 ft | 365 kts | 188° |
| 2026-05-04 00:08 | 39.51137 | -75.32471 | 15462 ft | 367 kts | 188° |
| 2026-05-04 00:08 | 39.48592 | -75.32932 | 16278 ft | 371 kts | 188° |
| 2026-05-04 00:09 | 39.46017 | -75.33398 | 17055 ft | 375 kts | 188° |
| 2026-05-04 00:09 | 39.43422 | -75.33868 | 17800 ft | 380 kts | 188° |
| 2026-05-04 00:09 | 39.40785 | -75.34346 | 18539 ft | 384 kts | 188° |
| 2026-05-04 00:09 | 39.38151 | -75.34823 | 19269 ft | 388 kts | 188° |
| 2026-05-04 00:10 | 39.35428 | -75.35316 | 19995 ft | 392 kts | 188° |
| 2026-05-04 00:10 | 39.32753 | -75.35800 | 20669 ft | 396 kts | 188° |
| 2026-05-04 00:10 | 39.30005 | -75.36297 | 21331 ft | 400 kts | 188° |
| 2026-05-04 00:10 | 39.27231 | -75.36798 | 21973 ft | 403 kts | 188° |
| 2026-05-04 00:11 | 39.24438 | -75.37303 | 22593 ft | 407 kts | 188° |
| 2026-05-04 00:11 | 39.21607 | -75.37815 | 23200 ft | 411 kts | 188° |
| 2026-05-04 00:11 | 39.18793 | -75.38323 | 23843 ft | 415 kts | 188° |
| 2026-05-04 00:11 | 39.15914 | -75.38843 | 24479 ft | 419 kts | 188° |
| 2026-05-04 00:12 | 39.13001 | -75.39369 | 25096 ft | 423 kts | 188° |
| 2026-05-04 00:12 | 39.10070 | -75.39897 | 25692 ft | 427 kts | 188° |
| 2026-05-04 00:12 | 39.07109 | -75.40431 | 26271 ft | 430 kts | 188° |
| 2026-05-04 00:12 | 39.04161 | -75.40963 | 26820 ft | 434 kts | 188° |
| 2026-05-04 00:13 | 39.01156 | -75.41504 | 27364 ft | 437 kts | 188° |
| 2026-05-04 00:13 | 38.98115 | -75.42052 | 27895 ft | 441 kts | 188° |
| 2026-05-04 00:13 | 38.95065 | -75.42601 | 28410 ft | 445 kts | 188° |
| 2026-05-04 00:13 | 38.91985 | -75.43154 | 28936 ft | 448 kts | 188° |
| 2026-05-04 00:14 | 38.88917 | -75.43688 | 29446 ft | 452 kts | 188° |
| 2026-05-04 00:14 | 38.85781 | -75.44242 | 29912 ft | 457 kts | 188° |
| 2026-05-04 00:14 | 38.82622 | -75.44804 | 30318 ft | 462 kts | 188° |
| 2026-05-04 00:14 | 38.79420 | -75.45376 | 30817 ft | 464 kts | 188° |
| 2026-05-04 00:15 | 38.76208 | -75.45936 | 31326 ft | 466 kts | 188° |
| 2026-05-04 00:15 | 38.72974 | -75.46505 | 31771 ft | 469 kts | 188° |
| 2026-05-04 00:15 | 38.69762 | -75.47075 | 32205 ft | 472 kts | 188° |
| 2026-05-04 00:15 | 38.66497 | -75.47654 | 32700 ft | 473 kts | 188° |
| 2026-05-04 00:16 | 38.63241 | -75.48218 | 33247 ft | 472 kts | 188° |
| 2026-05-04 00:16 | 38.59986 | -75.48790 | 33796 ft | 471 kts | 188° |
| 2026-05-04 00:16 | 38.56738 | -75.49366 | 34343 ft | 469 kts | 188° |
| 2026-05-04 00:16 | 38.53534 | -75.49928 | 34881 ft | 468 kts | 187° |
| 2026-05-04 00:17 | 38.50303 | -75.50488 | 35408 ft | 466 kts | 188° |
| 2026-05-04 00:17 | 38.47076 | -75.51056 | 35746 ft | 469 kts | 188° |
| 2026-05-04 00:17 | 38.43827 | -75.51631 | 35920 ft | 471 kts | 188° |
| 2026-05-04 00:17 | 38.40610 | -75.52186 | 36012 ft | 470 kts | 187° |
| 2026-05-04 00:18 | 38.34166 | -75.53591 | 36038 ft | 467 kts | 195° |
| 2026-05-04 00:18 | 38.28298 | -75.57040 | 36057 ft | 463 kts | 213° |
| 2026-05-04 00:19 | 38.23199 | -75.61955 | 36066 ft | 461 kts | 219° |
| 2026-05-04 00:19 | 38.18178 | -75.67040 | 36058 ft | 460 kts | 217° |
| 2026-05-04 00:20 | 38.12958 | -75.71765 | 36056 ft | 460 kts | 214° |
| 2026-05-04 00:20 | 38.07651 | -75.76249 | 36052 ft | 459 kts | 213° |
| 2026-05-04 00:21 | 38.02323 | -75.80741 | 36050 ft | 459 kts | 214° |
| 2026-05-04 00:21 | 37.97061 | -75.85284 | 36057 ft | 459 kts | 214° |
| 2026-05-04 00:22 | 37.91787 | -75.89850 | 36076 ft | 458 kts | 214° |
| 2026-05-04 00:22 | 37.86498 | -75.94375 | 36072 ft | 458 kts | 214° |
| 2026-05-04 00:23 | 37.81212 | -75.98930 | 36053 ft | 458 kts | 214° |
| 2026-05-04 00:23 | 37.75954 | -76.03425 | 36065 ft | 458 kts | 214° |
| 2026-05-04 00:24 | 37.70671 | -76.07954 | 36078 ft | 458 kts | 214° |
| 2026-05-04 00:24 | 37.65427 | -76.12431 | 36081 ft | 457 kts | 214° |
| 2026-05-04 00:25 | 37.60049 | -76.16738 | 36081 ft | 457 kts | 208° |
| 2026-05-04 00:25 | 37.54181 | -76.19834 | 36086 ft | 457 kts | 198° |
| 2026-05-04 00:26 | 37.48076 | -76.22060 | 36083 ft | 457 kts | 195° |
| 2026-05-04 00:26 | 37.41989 | -76.24259 | 36080 ft | 457 kts | 197° |
| 2026-05-04 00:27 | 37.35926 | -76.26709 | 36079 ft | 456 kts | 198° |
| 2026-05-04 00:27 | 37.29921 | -76.29254 | 36079 ft | 456 kts | 199° |
| 2026-05-04 00:28 | 37.23925 | -76.31779 | 36079 ft | 456 kts | 198° |
| 2026-05-04 00:28 | 37.17879 | -76.34260 | 36079 ft | 456 kts | 198° |
| 2026-05-04 00:29 | 37.11817 | -76.36728 | 36080 ft | 457 kts | 198° |
| 2026-05-04 00:29 | 37.05797 | -76.39195 | 36081 ft | 457 kts | 198° |
| 2026-05-04 00:30 | 36.99730 | -76.41682 | 36080 ft | 458 kts | 198° |
| 2026-05-04 00:30 | 36.93704 | -76.44140 | 36080 ft | 459 kts | 198° |
| 2026-05-04 00:31 | 36.88645 | -76.46212 | 36079 ft | 459 kts | 198° |
| 2026-05-04 00:31 | 36.81559 | -76.49092 | 36079 ft | 460 kts | 198° |
| 2026-05-04 00:32 | 36.76452 | -76.51178 | 36079 ft | 460 kts | 198° |
| 2026-05-04 00:32 | 36.70380 | -76.53639 | 36092 ft | 460 kts | 198° |
| 2026-05-04 00:33 | 36.61262 | -76.57342 | 36099 ft | 457 kts | 198° |
| 2026-05-04 00:34 | 36.55214 | -76.59785 | 36099 ft | 456 kts | 198° |
| 2026-05-04 00:34 | 36.49181 | -76.62221 | 36099 ft | 456 kts | 198° |
| 2026-05-04 00:35 | 36.43192 | -76.64643 | 36099 ft | 455 kts | 198° |
| 2026-05-04 00:35 | 36.37121 | -76.67088 | 36099 ft | 455 kts | 198° |
| 2026-05-04 00:36 | 36.31134 | -76.69494 | 36099 ft | 455 kts | 198° |
| 2026-05-04 00:36 | 36.25105 | -76.71915 | 36099 ft | 455 kts | 198° |
| 2026-05-04 00:37 | 36.19085 | -76.74329 | 36102 ft | 455 kts | 198° |
| 2026-05-04 00:37 | 36.13046 | -76.76750 | 36109 ft | 456 kts | 198° |
| 2026-05-04 00:38 | 36.07011 | -76.79168 | 36111 ft | 457 kts | 198° |
| 2026-05-04 00:38 | 36.00961 | -76.81589 | 36111 ft | 457 kts | 198° |
| 2026-05-04 00:39 | 35.94902 | -76.84012 | 36111 ft | 458 kts | 198° |
| 2026-05-04 00:39 | 35.88872 | -76.86422 | 36111 ft | 458 kts | 198° |
| 2026-05-04 00:40 | 35.82769 | -76.88858 | 36111 ft | 459 kts | 198° |
| 2026-05-04 00:40 | 35.76731 | -76.91268 | 36111 ft | 459 kts | 198° |
| 2026-05-04 00:41 | 35.70641 | -76.93658 | 36111 ft | 459 kts | 198° |
| 2026-05-04 00:41 | 35.64567 | -76.96061 | 36111 ft | 459 kts | 198° |
| 2026-05-04 00:42 | 35.58485 | -76.98442 | 36111 ft | 458 kts | 198° |
| 2026-05-04 00:42 | 35.52402 | -77.00833 | 36111 ft | 458 kts | 198° |
| 2026-05-04 00:43 | 35.46332 | -77.03215 | 36106 ft | 458 kts | 198° |
| 2026-05-04 00:43 | 35.40253 | -77.05585 | 36108 ft | 458 kts | 198° |
| 2026-05-04 00:44 | 35.34176 | -77.07963 | 36112 ft | 458 kts | 197° |
| 2026-05-04 00:44 | 35.28128 | -77.10326 | 36100 ft | 458 kts | 198° |
| 2026-05-04 00:45 | 35.22009 | -77.12701 | 36117 ft | 458 kts | 198° |
| 2026-05-04 00:45 | 35.15970 | -77.15049 | 36128 ft | 458 kts | 198° |
| 2026-05-04 00:46 | 35.09897 | -77.17413 | 36115 ft | 459 kts | 198° |
| 2026-05-04 00:46 | 35.03796 | -77.19774 | 36113 ft | 459 kts | 198° |
| 2026-05-04 00:47 | 34.97710 | -77.22124 | 36113 ft | 459 kts | 198° |
| 2026-05-04 00:47 | 34.91611 | -77.24482 | 36113 ft | 459 kts | 197° |
| 2026-05-04 00:48 | 34.85516 | -77.26839 | 36117 ft | 460 kts | 197° |
| 2026-05-04 00:48 | 34.79450 | -77.29174 | 36117 ft | 460 kts | 198° |
| 2026-05-04 00:49 | 34.73340 | -77.31517 | 36111 ft | 460 kts | 198° |
| 2026-05-04 00:49 | 34.67216 | -77.33868 | 36117 ft | 460 kts | 197° |
| 2026-05-04 00:50 | 34.61107 | -77.36217 | 36114 ft | 461 kts | 197° |
| 2026-05-04 00:50 | 34.54990 | -77.38558 | 36105 ft | 461 kts | 198° |
| 2026-05-04 00:51 | 34.48858 | -77.40832 | 36096 ft | 461 kts | 195° |
| 2026-05-04 00:51 | 34.42591 | -77.42470 | 36113 ft | 460 kts | 189° |
| 2026-05-04 00:52 | 34.36248 | -77.43580 | 36111 ft | 460 kts | 187° |
| 2026-05-04 00:52 | 34.29902 | -77.44643 | 36109 ft | 460 kts | 188° |
| 2026-05-04 00:53 | 34.23609 | -77.45832 | 36109 ft | 460 kts | 189° |
| 2026-05-04 00:53 | 34.17285 | -77.47108 | 36109 ft | 460 kts | 189° |
| 2026-05-04 00:54 | 34.10964 | -77.48337 | 36109 ft | 460 kts | 189° |
| 2026-05-04 00:54 | 34.04636 | -77.49548 | 36111 ft | 460 kts | 189° |
| 2026-05-04 00:55 | 33.98308 | -77.50774 | 36111 ft | 460 kts | 189° |
| 2026-05-04 00:55 | 33.91987 | -77.51999 | 36111 ft | 460 kts | 189° |
| 2026-05-04 00:56 | 33.85653 | -77.53222 | 36111 ft | 460 kts | 189° |
| 2026-05-04 00:56 | 33.79330 | -77.54443 | 36111 ft | 460 kts | 189° |
| 2026-05-04 00:57 | 33.73003 | -77.55664 | 36111 ft | 461 kts | 189° |
| 2026-05-04 00:57 | 33.66673 | -77.56881 | 36111 ft | 461 kts | 189° |
| 2026-05-04 00:58 | 33.60364 | -77.58093 | 36111 ft | 461 kts | 189° |
| 2026-05-04 00:58 | 33.54048 | -77.59491 | 36111 ft | 461 kts | 191° |
| 2026-05-04 00:59 | 33.47772 | -77.61108 | 36112 ft | 461 kts | 192° |
| 2026-05-04 00:59 | 33.41507 | -77.62751 | 36115 ft | 461 kts | 192° |
| 2026-05-04 01:00 | 33.35219 | -77.64360 | 36123 ft | 461 kts | 192° |
| 2026-05-04 01:00 | 33.28944 | -77.65954 | 36131 ft | 461 kts | 192° |
| 2026-05-04 01:01 | 33.22654 | -77.67530 | 36136 ft | 461 kts | 192° |
| 2026-05-04 01:01 | 33.16369 | -77.69106 | 36140 ft | 461 kts | 192° |
| 2026-05-04 01:02 | 33.10090 | -77.70681 | 36141 ft | 461 kts | 192° |
| 2026-05-04 01:02 | 33.03837 | -77.72242 | 36141 ft | 461 kts | 192° |
| 2026-05-04 01:03 | 32.97549 | -77.73811 | 36141 ft | 461 kts | 192° |
| 2026-05-04 01:03 | 32.91268 | -77.75379 | 36140 ft | 461 kts | 192° |
| 2026-05-04 01:04 | 32.84973 | -77.76941 | 36140 ft | 461 kts | 192° |
| 2026-05-04 01:04 | 32.78686 | -77.78510 | 36140 ft | 461 kts | 192° |
| 2026-05-04 01:05 | 32.72388 | -77.80066 | 36140 ft | 461 kts | 192° |
| 2026-05-04 01:05 | 32.66142 | -77.81621 | 36140 ft | 461 kts | 192° |
| 2026-05-04 01:06 | 32.59854 | -77.83172 | 36141 ft | 461 kts | 192° |
| 2026-05-04 01:06 | 32.53567 | -77.84724 | 36141 ft | 461 kts | 192° |
| 2026-05-04 01:07 | 32.47233 | -77.86294 | 36141 ft | 461 kts | 192° |
| 2026-05-04 01:07 | 32.40988 | -77.87826 | 36141 ft | 461 kts | 192° |
| 2026-05-04 01:08 | 32.34699 | -77.89374 | 36141 ft | 461 kts | 192° |
| 2026-05-04 01:08 | 32.28410 | -77.90924 | 36141 ft | 461 kts | 192° |
| 2026-05-04 01:09 | 32.22118 | -77.92461 | 36141 ft | 461 kts | 192° |
| 2026-05-04 01:09 | 32.15829 | -77.94004 | 36141 ft | 461 kts | 192° |
| 2026-05-04 01:10 | 32.09586 | -77.95536 | 36140 ft | 461 kts | 192° |
| 2026-05-04 01:10 | 32.03302 | -77.97065 | 36140 ft | 461 kts | 192° |
| 2026-05-04 01:11 | 31.97030 | -77.98594 | 36141 ft | 460 kts | 192° |
| 2026-05-04 01:11 | 31.90756 | -78.00131 | 36141 ft | 460 kts | 192° |
| 2026-05-04 01:12 | 31.84484 | -78.01650 | 36140 ft | 460 kts | 192° |
| 2026-05-04 01:12 | 31.78212 | -78.03172 | 36140 ft | 460 kts | 192° |
| 2026-05-04 01:13 | 31.71948 | -78.04699 | 36141 ft | 460 kts | 191° |
| 2026-05-04 01:13 | 31.65684 | -78.06214 | 36141 ft | 459 kts | 192° |
| 2026-05-04 01:14 | 31.59413 | -78.07726 | 36140 ft | 459 kts | 192° |
| 2026-05-04 01:14 | 31.53158 | -78.09241 | 36141 ft | 460 kts | 191° |
| 2026-05-04 01:15 | 31.46887 | -78.10759 | 36141 ft | 460 kts | 192° |
| 2026-05-04 01:15 | 31.41667 | -78.11994 | 36140 ft | 460 kts | 191° |
| 2026-05-04 01:16 | 31.35383 | -78.13422 | 36141 ft | 460 kts | 191° |
| 2026-05-04 01:16 | 31.29092 | -78.14811 | 36141 ft | 460 kts | 191° |
| 2026-05-04 01:17 | 31.22797 | -78.16226 | 36141 ft | 460 kts | 191° |
| 2026-05-04 01:17 | 31.16498 | -78.17628 | 36140 ft | 460 kts | 191° |
| 2026-05-04 01:18 | 31.10243 | -78.19024 | 36140 ft | 460 kts | 191° |
| 2026-05-04 01:18 | 31.03946 | -78.20419 | 36140 ft | 460 kts | 191° |
| 2026-05-04 01:19 | 30.97652 | -78.21820 | 36141 ft | 460 kts | 191° |
| 2026-05-04 01:19 | 30.91366 | -78.23220 | 36141 ft | 460 kts | 191° |
| 2026-05-04 01:20 | 30.85074 | -78.24674 | 36141 ft | 460 kts | 192° |
| 2026-05-04 01:20 | 30.78827 | -78.26166 | 36141 ft | 460 kts | 191° |
| 2026-05-04 01:21 | 30.72502 | -78.27631 | 36141 ft | 460 kts | 191° |
| 2026-05-04 01:21 | 30.66260 | -78.29101 | 36141 ft | 460 kts | 191° |
| 2026-05-04 01:22 | 30.59986 | -78.30569 | 36140 ft | 460 kts | 191° |
| 2026-05-04 01:22 | 30.53697 | -78.32028 | 36140 ft | 460 kts | 191° |
| 2026-05-04 01:23 | 30.47427 | -78.33494 | 36140 ft | 460 kts | 191° |
| 2026-05-04 01:23 | 30.41128 | -78.34896 | 36141 ft | 460 kts | 190° |
| 2026-05-04 01:24 | 30.34789 | -78.35987 | 36124 ft | 460 kts | 187° |
| 2026-05-04 01:24 | 30.28421 | -78.36863 | 36116 ft | 460 kts | 187° |
| 2026-05-04 01:25 | 30.22059 | -78.37743 | 36111 ft | 460 kts | 187° |
| 2026-05-04 01:25 | 30.15710 | -78.38700 | 36090 ft | 460 kts | 187° |
| 2026-05-04 01:26 | 30.09354 | -78.39655 | 36086 ft | 460 kts | 187° |
| 2026-05-04 01:26 | 30.02992 | -78.40599 | 36082 ft | 460 kts | 187° |
| 2026-05-04 01:27 | 29.96646 | -78.41539 | 36081 ft | 460 kts | 187° |
| 2026-05-04 01:27 | 29.90287 | -78.42492 | 36081 ft | 460 kts | 187° |
| 2026-05-04 01:28 | 29.83967 | -78.43428 | 36081 ft | 460 kts | 187° |
| 2026-05-04 01:28 | 29.77612 | -78.44365 | 36081 ft | 460 kts | 187° |
| 2026-05-04 01:29 | 29.71254 | -78.45312 | 36081 ft | 460 kts | 187° |
| 2026-05-04 01:29 | 29.64906 | -78.46254 | 36081 ft | 460 kts | 187° |
| 2026-05-04 01:30 | 29.58547 | -78.47186 | 36081 ft | 460 kts | 187° |
| 2026-05-04 01:30 | 29.57468 | -78.47348 | 36081 ft | 460 kts | 187° |